createdAt,value
2022-08-21T00:01:44.360Z,8.20
2022-08-21T00:04:14.474Z,7.07
2022-08-21T00:06:42.203Z,6.25
2022-08-21T00:09:10.867Z,4.95
2022-08-21T00:11:41.701Z,5.13
2022-08-21T00:14:10.865Z,5.75
2022-08-21T00:16:39.539Z,5.45
2022-08-21T00:19:07.899Z,5.15
2022-08-21T00:21:36.621Z,5.30
2022-08-21T00:24:04.500Z,5.03
2022-08-21T00:26:31.499Z,5.25
2022-08-21T00:28:59.003Z,5.25
2022-08-21T00:31:26.417Z,6.03
2022-08-21T00:33:57.967Z,6.30
2022-08-21T00:36:28.403Z,7.13
2022-08-21T00:38:55.525Z,8.23
2022-08-21T00:41:37.556Z,6.93
2022-08-21T00:44:10.105Z,6.15
2022-08-21T00:46:39.697Z,7.15
2022-08-21T00:49:09.114Z,7.63
2022-08-21T00:51:59.139Z,6.53
2022-08-21T00:54:30.643Z,6.22
2022-08-21T00:57:05.812Z,6.30
2022-08-21T00:59:38.343Z,7.03
2022-08-21T01:02:08.379Z,7.32
2022-08-21T01:04:35.983Z,7.50
2022-08-21T01:07:04.226Z,7.28
2022-08-21T01:09:31.258Z,7.35
2022-08-21T01:11:58.364Z,8.93
2022-08-21T01:14:25.633Z,8.30
2022-08-21T01:16:55.353Z,7.78
2022-08-21T01:19:23.732Z,7.88
2022-08-21T01:21:51.063Z,9.32
2022-08-21T01:24:18.187Z,8.98
2022-08-21T01:26:46.204Z,8.32
2022-08-21T01:29:23.734Z,8.88
2022-08-21T01:31:50.889Z,9.07
2022-08-21T01:34:19.592Z,10.32
2022-08-21T01:36:48.222Z,9.95
2022-08-21T01:39:16.154Z,9.98
2022-08-21T01:41:43.827Z,9.90
2022-08-21T01:44:10.797Z,11.50
2022-08-21T01:46:37.776Z,13.20
2022-08-21T01:49:06.670Z,11.65
2022-08-21T01:51:34.073Z,11.60
2022-08-21T01:54:01.270Z,11.77
2022-08-21T01:56:28.993Z,12.43
2022-08-21T01:58:56.661Z,12.48
2022-08-21T02:01:23.696Z,13.32
2022-08-21T02:03:50.656Z,13.40
2022-08-21T02:06:19.047Z,13.63
2022-08-21T02:08:47.392Z,15.80
2022-08-21T02:11:14.565Z,15.35
2022-08-21T02:13:41.910Z,15.63
2022-08-21T02:16:11.605Z,16.98
2022-08-21T02:18:40.578Z,23.23
2022-08-21T02:21:08.112Z,22.80
2022-08-21T02:23:35.579Z,19.00
2022-08-21T02:26:07.550Z,19.45
2022-08-21T02:28:36.180Z,19.52
2022-08-21T02:31:04.229Z,20.52
2022-08-21T02:33:31.572Z,21.42
2022-08-21T02:35:59.767Z,19.70
2022-08-21T02:38:30.977Z,21.25
2022-08-21T02:40:58.713Z,22.23
2022-08-21T02:43:28.970Z,20.90
2022-08-21T02:45:58.612Z,20.38
2022-08-21T02:48:32.123Z,20.35
2022-08-21T02:51:20.727Z,20.85
2022-08-21T02:53:51.607Z,21.35
2022-08-21T02:56:22.134Z,20.88
2022-08-21T02:58:53.015Z,19.83
2022-08-21T03:01:21.633Z,20.95
2022-08-21T03:03:52.377Z,22.20
2022-08-21T03:06:23.136Z,22.77
2022-08-21T03:08:50.534Z,22.00
2022-08-21T03:11:18.458Z,20.85
2022-08-21T03:13:45.526Z,19.80
2022-08-21T03:16:12.832Z,19.33
2022-08-21T03:18:40.181Z,16.98
2022-08-21T03:21:07.892Z,17.40
2022-08-21T03:23:34.920Z,18.25
2022-08-21T03:26:02.316Z,17.58
2022-08-21T03:28:29.467Z,15.20
2022-08-21T03:30:56.447Z,14.05
2022-08-21T03:33:24.106Z,13.45
2022-08-21T03:36:06.057Z,12.23
2022-08-21T03:38:35.416Z,12.63
2022-08-21T03:41:02.591Z,11.05
2022-08-21T03:43:30.920Z,11.05
2022-08-21T03:46:02.371Z,10.95
2022-08-21T03:48:29.960Z,10.95
2022-08-21T03:50:57.588Z,10.98
2022-08-21T03:53:25.551Z,12.13
2022-08-21T03:55:53.799Z,10.63
2022-08-21T03:58:25.188Z,11.07
2022-08-21T04:00:56.598Z,10.15
2022-08-21T04:03:24.579Z,10.48
2022-08-21T04:05:52.016Z,11.27
2022-08-21T04:08:20.237Z,11.60
2022-08-21T04:10:51.827Z,11.70
2022-08-21T04:13:19.048Z,10.90
2022-08-21T04:15:46.040Z,10.48
2022-08-21T04:18:14.112Z,10.57
2022-08-21T04:20:45.335Z,10.77
2022-08-21T04:23:24.575Z,12.20
2022-08-21T04:25:54.203Z,11.55
2022-08-21T04:28:23.372Z,14.18
2022-08-21T04:30:53.045Z,11.68
2022-08-21T04:33:21.996Z,11.00
2022-08-21T04:35:50.476Z,11.32
2022-08-21T04:38:17.798Z,11.20
2022-08-21T04:40:45.424Z,9.90
2022-08-21T04:43:12.887Z,10.63
2022-08-21T04:45:45.352Z,10.43
2022-08-21T04:48:16.428Z,10.63
2022-08-21T04:51:00.608Z,10.27
2022-08-21T04:53:41.068Z,9.65
2022-08-21T04:56:36.299Z,10.43
2022-08-21T04:59:11.760Z,10.43
2022-08-21T05:01:41.443Z,11.05
2022-08-21T05:04:13.710Z,9.65
2022-08-21T05:06:45.169Z,10.10
2022-08-21T05:09:16.388Z,9.93
2022-08-21T05:11:44.278Z,9.75
2022-08-21T05:14:13.146Z,9.63
2022-08-21T05:16:41.188Z,9.65
2022-08-21T05:19:09.720Z,9.57
2022-08-21T05:21:40.358Z,9.82
2022-08-21T05:24:07.610Z,10.20
2022-08-21T05:26:45.350Z,9.35
2022-08-21T05:29:17.010Z,10.48
2022-08-21T05:31:47.471Z,12.65
2022-08-21T05:34:19.680Z,11.82
2022-08-21T05:36:47.292Z,10.45
2022-08-21T05:39:15.657Z,10.88
2022-08-21T05:41:42.756Z,10.02
2022-08-21T05:44:10.355Z,10.23
2022-08-21T05:46:39.438Z,9.88
2022-08-21T05:49:06.572Z,11.23
2022-08-21T05:51:33.524Z,10.48
2022-08-21T05:54:00.565Z,10.75
2022-08-21T05:56:27.553Z,10.20
2022-08-21T05:58:54.600Z,10.52
2022-08-21T06:01:21.618Z,10.80
2022-08-21T06:03:48.698Z,11.05
2022-08-21T06:06:16.113Z,12.35
2022-08-21T06:08:43.785Z,12.70
2022-08-21T06:11:11.381Z,11.00
2022-08-21T06:13:40.059Z,11.07
2022-08-21T06:16:15.976Z,11.90
2022-08-21T06:18:45.840Z,11.70
2022-08-21T06:21:14.626Z,11.00
2022-08-21T06:23:43.145Z,10.32
2022-08-21T06:26:12.426Z,10.13
2022-08-21T06:28:40.398Z,10.40
2022-08-21T06:31:25.159Z,9.70
2022-08-21T06:33:52.895Z,10.57
2022-08-21T06:36:22.030Z,9.82
2022-08-21T06:38:50.922Z,10.13
2022-08-21T06:41:24.141Z,9.68
2022-08-21T06:43:55.134Z,8.63
2022-08-21T06:46:22.467Z,9.20
2022-08-21T06:48:49.480Z,9.00
2022-08-21T06:51:16.707Z,9.02
2022-08-21T06:53:43.708Z,8.95
2022-08-21T06:56:11.072Z,8.45
2022-08-21T06:58:38.138Z,8.07
2022-08-21T07:01:07.031Z,7.60
2022-08-21T07:03:41.407Z,8.15
2022-08-21T07:06:11.016Z,8.20
2022-08-21T07:08:39.084Z,7.18
2022-08-21T07:11:16.005Z,7.03
2022-08-21T07:13:45.014Z,7.18
2022-08-21T07:16:13.512Z,6.88
2022-08-21T07:18:40.898Z,6.38
2022-08-21T07:21:09.386Z,6.80
2022-08-21T07:23:42.918Z,6.07
2022-08-21T07:26:11.661Z,6.20
2022-08-21T07:28:38.891Z,6.50
2022-08-21T07:31:06.944Z,6.03
2022-08-21T07:33:36.212Z,7.10
2022-08-21T07:36:04.324Z,5.82
2022-08-21T07:38:31.344Z,6.80
2022-08-21T07:41:01.018Z,6.10
2022-08-21T07:43:29.982Z,6.60
2022-08-21T07:45:57.338Z,6.38
2022-08-21T07:48:25.078Z,6.60
2022-08-21T07:50:53.076Z,7.47
2022-08-21T07:53:20.025Z,6.90
2022-08-21T07:55:47.150Z,7.25
2022-08-21T07:58:17.274Z,6.60
2022-08-21T08:00:44.403Z,6.55
2022-08-21T08:03:11.385Z,6.90
2022-08-21T08:05:40.129Z,5.90
2022-08-21T08:08:07.258Z,5.13
2022-08-21T08:10:34.384Z,5.05
2022-08-21T08:13:02.490Z,4.50
2022-08-21T08:15:30.881Z,4.82
2022-08-21T08:18:00.325Z,5.65
2022-08-21T08:20:27.707Z,4.65
2022-08-21T08:22:56.341Z,4.55
2022-08-21T08:25:27.053Z,4.32
2022-08-21T08:27:54.261Z,4.20
2022-08-21T08:30:24.660Z,4.63
2022-08-21T08:32:52.416Z,4.90
2022-08-21T08:35:20.168Z,4.72
2022-08-21T08:37:52.568Z,5.60
2022-08-21T08:40:34.434Z,4.80
2022-08-21T08:43:01.926Z,5.97
2022-08-21T08:45:35.618Z,6.38
2022-08-21T08:48:14.180Z,6.00
2022-08-21T08:50:58.230Z,5.50
2022-08-21T08:53:34.581Z,5.18
2022-08-21T08:56:04.701Z,5.25
2022-08-21T08:58:41.811Z,5.35
2022-08-21T09:01:18.472Z,4.72
2022-08-21T09:03:50.991Z,4.50
2022-08-21T09:07:16.163Z,4.43
2022-08-21T09:10:13.747Z,4.60
2022-08-21T09:12:59.452Z,5.00
2022-08-21T09:15:59.512Z,4.80
2022-08-21T09:18:32.544Z,4.65
2022-08-21T09:24:29.077Z,4.57
2022-08-21T09:27:08.534Z,4.50
2022-08-21T09:29:48.696Z,4.57
2022-08-21T09:32:37.211Z,4.35
2022-08-21T09:35:23.830Z,4.30
2022-08-21T09:37:59.047Z,4.43
2022-08-21T09:40:46.266Z,4.20
2022-08-21T09:43:13.220Z,4.82
2022-08-21T09:45:43.109Z,4.30
2022-08-21T09:48:26.863Z,4.03
2022-08-21T09:51:17.619Z,3.95
2022-08-21T09:54:06.609Z,4.10
2022-08-21T09:57:21.640Z,4.22
2022-08-21T09:59:49.634Z,4.40
2022-08-21T10:02:35.378Z,4.20
2022-08-21T10:05:26.400Z,4.60
2022-08-21T10:07:53.895Z,4.75
2022-08-21T10:10:25.556Z,4.68
2022-08-21T10:13:26.492Z,4.93
2022-08-21T10:17:01.863Z,4.30
2022-08-21T10:19:54.000Z,4.40
2022-08-21T10:22:54.266Z,4.38
2022-08-21T10:26:13.811Z,4.95
2022-08-21T10:28:56.866Z,4.53
2022-08-21T10:32:25.924Z,4.57
2022-08-21T10:35:15.824Z,4.70
2022-08-21T10:38:55.393Z,4.45
2022-08-21T10:42:09.359Z,4.23
2022-08-21T10:45:03.353Z,4.32
2022-08-21T10:47:58.024Z,4.18
2022-08-21T10:50:35.060Z,4.63
2022-08-21T10:53:26.720Z,4.72
2022-08-21T10:56:16.050Z,4.90
2022-08-21T10:59:09.587Z,4.85
2022-08-21T11:04:49.212Z,4.47
2022-08-21T11:08:03.271Z,5.75
2022-08-21T11:10:51.199Z,4.95
2022-08-21T11:13:56.476Z,4.75
2022-08-21T11:16:47.574Z,4.25
2022-08-21T11:19:26.864Z,4.28
2022-08-21T11:22:29.048Z,5.15
2022-08-21T11:25:36.554Z,5.85
2022-08-21T11:28:24.989Z,5.28
2022-08-21T11:30:54.522Z,6.00
2022-08-21T11:33:30.224Z,4.50
2022-08-21T11:36:21.832Z,6.60
2022-08-21T11:39:22.373Z,4.95
2022-08-21T11:42:27.397Z,3.53
2022-08-21T11:45:32.097Z,3.92
2022-08-21T11:48:45.290Z,4.00
2022-08-21T11:51:21.827Z,4.10
2022-08-21T11:54:27.298Z,4.20
2022-08-21T11:57:14.407Z,3.80
2022-08-21T11:59:58.697Z,4.38
2022-08-21T12:02:34.638Z,4.90
2022-08-21T12:05:23.664Z,4.00
2022-08-21T12:08:29.194Z,4.00
2022-08-21T12:11:24.354Z,4.07
2022-08-21T12:14:06.683Z,3.42
2022-08-21T12:16:40.741Z,3.33
2022-08-21T12:19:28.340Z,3.40
2022-08-21T12:22:14.925Z,3.78
2022-08-21T12:24:50.652Z,3.20
2022-08-21T12:28:07.339Z,3.20
2022-08-21T12:30:44.306Z,2.75
2022-08-21T12:33:40.485Z,3.25
2022-08-21T12:36:24.033Z,3.08
2022-08-21T12:39:11.666Z,2.63
2022-08-21T12:42:01.815Z,2.88
2022-08-21T12:45:09.430Z,2.83
2022-08-21T12:47:51.658Z,2.88
2022-08-21T12:50:53.438Z,2.90
2022-08-21T12:53:58.838Z,2.60
2022-08-21T12:56:30.267Z,2.50
2022-08-21T12:59:06.314Z,2.72
2022-08-21T13:01:48.899Z,2.75
2022-08-21T13:04:35.010Z,2.40
2022-08-21T13:07:02.206Z,2.58
2022-08-21T13:09:32.196Z,2.42
2022-08-21T13:12:01.819Z,2.88
2022-08-21T13:14:46.262Z,2.78
2022-08-21T13:17:23.677Z,2.65
2022-08-21T13:20:09.398Z,2.80
2022-08-21T13:25:20.631Z,2.38
2022-08-21T13:28:08.107Z,2.70
2022-08-21T13:30:39.885Z,2.40
2022-08-21T13:33:12.830Z,2.38
2022-08-21T13:36:01.655Z,2.78
2022-08-21T13:38:36.196Z,2.50
2022-08-21T13:41:37.983Z,2.33
2022-08-21T13:44:20.007Z,2.30
2022-08-21T13:46:50.332Z,2.90
2022-08-21T13:49:24.314Z,2.47
2022-08-21T13:51:53.102Z,2.42
2022-08-21T13:54:39.388Z,2.60
2022-08-21T13:57:31.168Z,2.30
2022-08-21T14:00:31.700Z,2.40
2022-08-21T14:03:10.754Z,2.30
2022-08-21T14:05:47.409Z,2.70
2022-08-21T14:08:38.423Z,2.53
2022-08-21T14:11:10.716Z,2.38
2022-08-21T14:14:04.878Z,2.63
2022-08-21T14:16:53.970Z,2.40
2022-08-21T14:19:48.554Z,2.38
2022-08-21T14:22:40.120Z,2.42
2022-08-21T14:25:19.117Z,2.70
2022-08-21T14:28:00.020Z,3.33
2022-08-21T14:30:37.768Z,2.80
2022-08-21T14:33:11.536Z,2.42
2022-08-21T14:35:40.172Z,2.22
2022-08-21T14:38:23.259Z,2.33
2022-08-21T14:40:55.406Z,2.20
2022-08-21T14:43:22.735Z,2.47
2022-08-21T14:45:49.838Z,2.60
2022-08-21T14:48:16.803Z,2.50
2022-08-21T14:50:43.908Z,2.10
2022-08-21T14:53:11.569Z,2.80
2022-08-21T14:55:59.706Z,2.40
2022-08-21T14:58:27.221Z,2.50
2022-08-21T15:00:57.394Z,2.40
2022-08-21T15:03:25.843Z,2.60
2022-08-21T15:05:53.007Z,2.15
2022-08-21T15:08:20.150Z,2.92
2022-08-21T15:11:10.539Z,3.00
2022-08-21T15:13:35.464Z,2.30
2022-08-21T15:16:03.132Z,2.17
2022-08-21T15:18:31.774Z,2.50
2022-08-21T15:20:59.177Z,2.55
2022-08-21T15:23:26.165Z,2.55
2022-08-21T15:25:54.845Z,2.58
2022-08-21T15:28:23.635Z,2.58
2022-08-21T15:30:51.675Z,2.60
2022-08-21T15:33:19.987Z,2.90
2022-08-21T15:35:47.334Z,2.80
2022-08-21T15:38:15.971Z,2.72
2022-08-21T15:40:51.761Z,3.30
2022-08-21T15:43:31.619Z,3.10
2022-08-21T15:46:02.570Z,3.40
2022-08-21T15:48:31.544Z,2.90
2022-08-21T15:50:58.702Z,2.88
2022-08-21T15:53:26.245Z,3.60
2022-08-21T15:55:54.512Z,3.15
2022-08-21T15:58:23.604Z,3.30
2022-08-21T16:00:50.901Z,3.28
2022-08-21T16:03:22.556Z,3.10
2022-08-21T16:05:53.191Z,2.90
2022-08-21T16:08:21.681Z,4.20
2022-08-21T16:10:49.953Z,3.50
2022-08-21T16:13:39.974Z,3.38
2022-08-21T16:16:08.315Z,3.28
2022-08-21T16:18:35.490Z,3.20
2022-08-21T16:21:02.731Z,3.17
2022-08-21T16:23:29.774Z,3.28
2022-08-21T16:26:01.648Z,3.33
2022-08-21T16:28:30.630Z,3.50
2022-08-21T16:30:58.656Z,3.20
2022-08-21T16:33:37.384Z,3.10
2022-08-21T16:36:07.274Z,3.33
2022-08-21T16:38:38.265Z,2.63
2022-08-21T16:41:19.754Z,3.08
2022-08-21T16:43:50.265Z,3.17
2022-08-21T16:46:19.455Z,3.88
2022-08-21T16:48:50.652Z,3.28
2022-08-21T16:51:21.312Z,3.40
2022-08-21T16:53:48.656Z,4.28
2022-08-21T16:56:17.397Z,3.10
2022-08-21T17:11:54.463Z,3.15
2022-08-21T17:14:23.972Z,2.88
2022-08-21T17:16:54.796Z,3.30
2022-08-21T17:19:23.016Z,3.13
2022-08-21T17:21:50.862Z,2.90
2022-08-21T17:24:18.281Z,3.10
2022-08-21T17:26:46.506Z,3.53
2022-08-21T17:29:16.087Z,3.13
2022-08-21T17:31:44.647Z,3.80
2022-08-21T17:34:12.879Z,3.63
2022-08-21T17:36:39.977Z,3.88
2022-08-21T17:39:09.897Z,3.47
2022-08-21T17:41:37.274Z,4.38
2022-08-21T17:44:09.460Z,9.95
2022-08-21T17:46:38.974Z,7.43
2022-08-21T17:49:09.318Z,5.78
2022-08-21T17:51:36.457Z,5.20
2022-08-21T17:54:03.975Z,5.60
2022-08-21T17:56:37.026Z,3.75
2022-08-21T18:01:42.612Z,3.30
2022-08-21T18:04:12.083Z,3.15
2022-08-21T18:06:40.787Z,3.53
2022-08-21T18:09:08.939Z,3.38
2022-08-21T18:11:37.650Z,3.10
2022-08-21T18:14:07.857Z,3.85
2022-08-21T18:16:37.734Z,3.17
2022-08-21T18:19:10.204Z,3.65
2022-08-21T18:21:37.579Z,3.75
2022-08-21T18:24:05.294Z,3.83
2022-08-21T18:26:39.329Z,3.75
2022-08-21T18:29:11.316Z,3.40
2022-08-21T18:31:41.323Z,4.35
2022-08-21T18:34:41.292Z,3.40
2022-08-21T18:37:09.706Z,3.20
2022-08-21T18:39:40.078Z,3.22
2022-08-21T18:42:15.425Z,3.75
2022-08-21T18:44:48.340Z,4.07
2022-08-21T18:47:39.757Z,3.47
2022-08-21T18:50:10.692Z,3.97
2022-08-21T18:52:51.866Z,3.25
2022-08-21T18:55:23.081Z,3.40
2022-08-21T18:57:54.728Z,3.20
2022-08-21T19:00:30.453Z,3.22
2022-08-21T19:02:58.287Z,4.10
2022-08-21T19:05:26.964Z,4.55
2022-08-21T19:07:56.711Z,3.47
2022-08-21T19:10:28.478Z,3.47
2022-08-21T19:13:00.667Z,3.83
2022-08-21T19:15:29.773Z,4.47
2022-08-21T19:17:59.013Z,3.53
2022-08-21T19:20:38.267Z,4.00
2022-08-21T19:23:11.952Z,4.03
2022-08-21T19:25:43.615Z,4.10
2022-08-21T19:28:22.110Z,4.05
2022-08-21T19:31:01.866Z,3.55
2022-08-21T19:33:47.205Z,3.88
2022-08-21T19:36:20.200Z,3.78
2022-08-21T19:38:48.524Z,3.90
2022-08-21T19:41:19.456Z,3.60
2022-08-21T19:43:58.367Z,3.90
2022-08-21T19:46:36.980Z,4.00
2022-08-21T19:49:11.809Z,3.80
2022-08-21T19:51:41.485Z,2.85
2022-08-21T19:54:33.005Z,2.72
2022-08-21T19:57:09.094Z,2.50
2022-08-21T19:59:38.756Z,2.75
2022-08-21T20:02:09.093Z,2.50
2022-08-21T20:04:37.054Z,2.60
2022-08-21T20:07:08.130Z,2.75
2022-08-21T20:09:52.578Z,2.95
2022-08-21T20:12:19.952Z,2.85
2022-08-21T20:14:49.779Z,3.13
2022-08-21T20:17:20.842Z,2.80
2022-08-21T20:19:53.923Z,3.00
2022-08-21T20:22:24.159Z,2.92
2022-08-21T20:24:51.634Z,3.08
2022-08-21T20:27:27.676Z,2.70
2022-08-21T20:29:55.773Z,2.50
2022-08-21T20:32:24.358Z,2.47
2022-08-21T20:34:53.818Z,2.70
2022-08-21T20:40:13.070Z,2.15
2022-08-21T20:42:45.380Z,2.20
2022-08-21T20:45:19.355Z,2.07
2022-08-21T20:47:48.151Z,2.03
2022-08-21T20:50:27.352Z,2.43
2022-08-21T20:53:43.657Z,2.05
2022-08-21T20:56:24.984Z,1.75
2022-08-21T20:59:34.944Z,1.90
2022-08-21T21:02:16.659Z,1.90
2022-08-21T21:04:57.812Z,2.00
2022-08-21T21:07:51.816Z,2.17
2022-08-21T21:10:36.802Z,2.03
2022-08-21T21:13:18.032Z,2.20
2022-08-21T21:15:51.423Z,1.75
2022-08-21T21:18:53.837Z,1.73
2022-08-21T21:22:12.625Z,2.38
2022-08-21T21:24:56.444Z,1.80
2022-08-21T21:27:37.564Z,2.67
2022-08-21T21:30:16.582Z,1.60
2022-08-21T21:32:48.784Z,2.30
2022-08-21T21:35:22.348Z,1.92
2022-08-21T21:38:14.648Z,2.35
2022-08-21T21:41:19.914Z,1.70
2022-08-21T21:44:15.700Z,1.85
2022-08-21T21:47:24.028Z,2.13
2022-08-21T21:50:06.585Z,1.80
2022-08-21T21:53:15.307Z,2.15
2022-08-21T21:55:54.246Z,2.10
2022-08-21T21:58:51.624Z,1.90
2022-08-21T22:02:09.420Z,2.50
2022-08-21T22:04:51.255Z,1.90
2022-08-21T22:07:37.740Z,2.28
2022-08-21T22:10:43.210Z,1.95
2022-08-21T22:16:15.408Z,2.17
2022-08-21T22:18:54.742Z,2.30
2022-08-21T22:21:37.307Z,2.15
2022-08-21T22:24:23.214Z,2.20
2022-08-21T22:26:59.988Z,2.20
2022-08-21T22:29:54.653Z,2.33
2022-08-21T22:32:37.592Z,2.20
2022-08-21T22:35:21.684Z,2.22
2022-08-21T22:37:59.634Z,2.47
2022-08-21T22:40:32.135Z,2.45
2022-08-21T22:43:07.309Z,2.60
2022-08-21T22:46:08.958Z,2.65
2022-08-21T22:48:53.017Z,4.03
2022-08-21T22:51:40.005Z,2.95
2022-08-21T22:54:21.809Z,2.92
2022-08-21T22:57:07.193Z,2.70
2022-08-21T22:59:55.929Z,2.55
2022-08-21T23:02:43.121Z,2.50
2022-08-21T23:05:33.549Z,2.53
2022-08-21T23:08:24.017Z,2.10
2022-08-21T23:11:24.331Z,2.20
2022-08-21T23:13:54.020Z,2.50
2022-08-21T23:16:47.183Z,4.60
2022-08-21T23:19:28.777Z,3.30
2022-08-21T23:22:10.152Z,2.60
2022-08-21T23:25:12.571Z,3.80
2022-08-21T23:28:23.857Z,2.78
2022-08-21T23:31:32.336Z,2.90
2022-08-21T23:34:11.464Z,2.50
2022-08-21T23:40:19.263Z,2.53
2022-08-21T23:43:14.138Z,2.60
2022-08-21T23:46:02.148Z,2.45
2022-08-21T23:48:55.051Z,2.33
2022-08-21T23:51:57.035Z,2.42
2022-08-21T23:54:42.686Z,2.60
2022-08-21T23:57:38.392Z,2.50
